createdAt,value
2023-05-09T00:00:12.050Z,21.50
2023-05-09T00:03:02.567Z,20.15
2023-05-09T00:05:30.635Z,20.80
2023-05-09T00:07:58.382Z,21.88
2023-05-09T00:10:27.655Z,22.73
2023-05-09T00:12:56.101Z,23.65
2023-05-09T00:15:26.255Z,24.70
2023-05-09T00:17:54.758Z,24.88
2023-05-09T00:20:23.839Z,26.55
2023-05-09T00:22:51.858Z,25.23
2023-05-09T00:25:20.133Z,23.25
2023-05-09T00:27:47.495Z,22.38
2023-05-09T00:30:15.637Z,22.25
2023-05-09T00:32:43.406Z,22.70
2023-05-09T00:35:11.444Z,22.15
2023-05-09T00:37:38.960Z,21.33
2023-05-09T00:40:07.779Z,21.38
2023-05-09T00:42:36.278Z,21.73
2023-05-09T00:45:04.780Z,24.42
2023-05-09T00:47:34.828Z,27.00
2023-05-09T00:50:03.134Z,25.98
2023-05-09T00:52:31.415Z,27.58
2023-05-09T00:55:00.754Z,26.27
2023-05-09T00:57:29.203Z,26.88
2023-05-09T00:59:57.995Z,25.05
2023-05-09T01:02:26.415Z,26.00
2023-05-09T01:04:55.178Z,23.63
2023-05-09T01:07:39.585Z,22.45
2023-05-09T01:10:45.897Z,24.33
2023-05-09T01:13:24.847Z,23.27
2023-05-09T01:15:56.095Z,23.52
2023-05-09T01:18:35.440Z,22.92
2023-05-09T01:21:08.958Z,22.73
2023-05-09T01:23:39.806Z,24.90
2023-05-09T01:26:30.440Z,24.63
2023-05-09T01:29:16.880Z,22.85
2023-05-09T01:31:45.856Z,23.63
2023-05-09T01:34:16.165Z,24.80
2023-05-09T01:36:45.768Z,23.40
2023-05-09T01:39:14.632Z,23.63
2023-05-09T01:41:42.571Z,24.35
2023-05-09T01:44:13.223Z,22.77
2023-05-09T01:46:43.561Z,23.70
2023-05-09T01:49:11.789Z,25.80
2023-05-09T01:51:43.820Z,26.40
2023-05-09T01:54:13.245Z,25.48
2023-05-09T01:56:42.801Z,26.02
2023-05-09T01:59:16.587Z,27.23
2023-05-09T02:01:46.154Z,27.25
2023-05-09T02:04:16.096Z,28.40
2023-05-09T02:06:45.410Z,28.25
2023-05-09T02:09:13.367Z,27.45
2023-05-09T02:11:43.866Z,29.10
2023-05-09T02:14:12.035Z,30.27
2023-05-09T02:16:41.427Z,33.00
2023-05-09T02:19:09.950Z,30.25
2023-05-09T02:21:38.568Z,30.75
2023-05-09T02:24:07.260Z,31.38
2023-05-09T02:26:37.136Z,29.05
2023-05-09T02:29:07.563Z,29.20
2023-05-09T02:31:36.881Z,29.42
2023-05-09T02:34:05.869Z,30.13
2023-05-09T02:36:36.673Z,29.00
2023-05-09T02:39:05.047Z,27.80
2023-05-09T02:41:33.257Z,27.90
2023-05-09T02:44:01.656Z,29.27
2023-05-09T02:46:31.689Z,28.77
2023-05-09T02:49:01.062Z,28.88
2023-05-09T02:51:29.842Z,27.92
2023-05-09T02:53:58.333Z,28.65
2023-05-09T02:56:27.022Z,28.77
2023-05-09T02:58:55.703Z,28.98
2023-05-09T03:01:24.526Z,29.88
2023-05-09T03:03:52.729Z,28.23
2023-05-09T03:06:22.648Z,31.23
2023-05-09T03:08:50.613Z,29.23
2023-05-09T03:11:19.194Z,28.20
2023-05-09T03:13:48.863Z,29.38
2023-05-09T03:16:18.614Z,28.10
2023-05-09T03:18:47.091Z,28.63
2023-05-09T03:21:15.061Z,29.35
2023-05-09T03:23:43.086Z,30.67
2023-05-09T03:26:11.395Z,30.08
2023-05-09T03:28:39.713Z,30.40
2023-05-09T03:31:08.413Z,30.15
2023-05-09T03:33:36.836Z,29.50
2023-05-09T03:36:06.062Z,31.10
2023-05-09T03:38:33.998Z,31.38
2023-05-09T03:41:02.579Z,31.25
2023-05-09T03:43:31.009Z,31.98
2023-05-09T03:45:59.427Z,32.95
2023-05-09T03:48:28.261Z,31.65
2023-05-09T03:50:57.409Z,29.05
2023-05-09T03:53:28.019Z,30.10
2023-05-09T03:55:56.924Z,31.80
2023-05-09T03:58:27.350Z,33.28
2023-05-09T04:00:56.592Z,33.33
2023-05-09T04:03:27.378Z,34.97
2023-05-09T04:05:56.544Z,36.10
2023-05-09T04:08:34.073Z,38.22
2023-05-09T04:11:05.047Z,36.42
2023-05-09T04:13:34.520Z,37.40
2023-05-09T04:16:07.904Z,35.55
2023-05-09T04:18:37.108Z,32.75
2023-05-09T04:21:05.239Z,34.08
2023-05-09T04:23:33.354Z,30.27
2023-05-09T04:26:01.397Z,29.90
2023-05-09T04:28:29.589Z,29.88
2023-05-09T04:30:59.007Z,27.60
2023-05-09T04:33:26.639Z,25.77
2023-05-09T04:36:01.631Z,26.50
2023-05-09T04:38:29.595Z,23.90
2023-05-09T04:40:58.958Z,23.33
2023-05-09T04:43:28.731Z,22.88
2023-05-09T04:45:58.682Z,20.80
2023-05-09T04:48:26.509Z,20.08
2023-05-09T04:50:55.081Z,20.52
2023-05-09T04:53:23.483Z,20.27
2023-05-09T04:55:54.117Z,20.48
2023-05-09T04:58:23.024Z,20.63
2023-05-09T05:00:51.839Z,19.55
2023-05-09T05:03:20.493Z,19.60
2023-05-09T05:05:50.323Z,17.95
2023-05-09T05:08:18.829Z,18.25
2023-05-09T05:10:49.766Z,17.00
2023-05-09T05:13:19.133Z,17.85
2023-05-09T05:15:52.006Z,17.55
2023-05-09T05:18:21.896Z,17.55
2023-05-09T05:20:51.332Z,17.15
2023-05-09T05:23:20.087Z,18.35
2023-05-09T05:25:51.721Z,17.15
2023-05-09T05:28:20.818Z,17.05
2023-05-09T05:30:50.055Z,16.45
2023-05-09T05:33:18.743Z,16.83
2023-05-09T05:35:47.591Z,17.38
2023-05-09T05:38:16.219Z,17.40
2023-05-09T05:40:49.776Z,15.80
2023-05-09T05:43:18.378Z,16.35
2023-05-09T05:45:46.948Z,15.27
2023-05-09T05:48:19.172Z,14.75
2023-05-09T05:50:49.019Z,15.75
2023-05-09T05:53:21.074Z,16.50
2023-05-09T05:55:53.660Z,13.02
2023-05-09T05:58:23.089Z,10.45
2023-05-09T06:00:53.756Z,10.15
2023-05-09T06:03:24.555Z,12.57
2023-05-09T06:06:04.063Z,13.30
2023-05-09T06:08:32.826Z,9.80
2023-05-09T06:11:02.004Z,8.77
2023-05-09T06:13:29.861Z,9.55
2023-05-09T06:16:18.513Z,9.55
2023-05-09T06:18:50.297Z,8.90
2023-05-09T06:21:18.548Z,7.70
2023-05-09T06:24:05.036Z,8.52
2023-05-09T06:26:36.811Z,8.25
2023-05-09T06:29:06.553Z,8.57
2023-05-09T06:31:39.277Z,10.18
2023-05-09T06:34:07.755Z,9.55
2023-05-09T06:36:36.702Z,9.02
2023-05-09T06:39:05.047Z,8.82
2023-05-09T06:41:35.101Z,10.45
2023-05-09T06:44:03.091Z,8.30
2023-05-09T06:46:31.837Z,9.38
2023-05-09T06:49:02.697Z,9.10
2023-05-09T06:51:31.590Z,7.13
2023-05-09T06:53:59.902Z,7.95
2023-05-09T06:56:28.560Z,6.75
2023-05-09T06:58:56.708Z,6.85
2023-05-09T07:01:25.424Z,5.82
2023-05-09T07:03:53.468Z,5.28
2023-05-09T07:06:22.236Z,5.40
2023-05-09T07:09:17.915Z,5.28
2023-05-09T07:11:46.616Z,5.30
2023-05-09T07:14:14.832Z,4.60
2023-05-09T07:16:43.338Z,4.13
2023-05-09T07:19:11.081Z,3.80
2023-05-09T07:21:39.574Z,3.75
2023-05-09T07:24:09.146Z,3.63
2023-05-09T07:26:38.191Z,3.55
2023-05-09T07:29:06.517Z,3.55
2023-05-09T07:31:37.219Z,3.40
2023-05-09T07:34:06.088Z,3.50
2023-05-09T07:36:35.612Z,3.25
2023-05-09T07:39:05.396Z,3.63
2023-05-09T07:41:34.033Z,3.10
2023-05-09T07:44:02.306Z,2.53
2023-05-09T07:46:30.731Z,2.22
2023-05-09T07:48:59.121Z,2.20
2023-05-09T07:51:27.922Z,1.95
2023-05-09T07:53:57.304Z,1.88
2023-05-09T07:56:27.118Z,1.67
2023-05-09T07:58:55.805Z,2.17
2023-05-09T08:01:24.415Z,2.25
2023-05-09T08:03:52.405Z,2.28
2023-05-09T08:06:21.059Z,1.55
2023-05-09T08:08:49.675Z,2.15
2023-05-09T08:11:18.394Z,2.15
2023-05-09T08:13:47.338Z,1.92
2023-05-09T08:16:17.851Z,1.85
2023-05-09T08:18:46.974Z,1.90
2023-05-09T08:21:15.727Z,1.98
2023-05-09T08:23:43.494Z,2.13
2023-05-09T08:26:11.607Z,2.40
2023-05-09T08:28:39.791Z,1.83
2023-05-09T08:31:07.805Z,1.75
2023-05-09T08:33:36.247Z,1.90
2023-05-09T08:36:05.513Z,2.33
2023-05-09T08:38:33.430Z,1.98
2023-05-09T08:41:02.453Z,2.65
2023-05-09T08:43:31.086Z,2.15
2023-05-09T08:46:00.948Z,2.30
2023-05-09T08:48:29.740Z,2.15
2023-05-09T08:50:58.368Z,1.88
2023-05-09T08:53:27.693Z,2.40
2023-05-09T08:55:56.694Z,1.85
2023-05-09T08:58:24.825Z,2.10
2023-05-09T09:00:54.423Z,1.88
2023-05-09T09:03:24.720Z,1.70
2023-05-09T09:05:55.025Z,1.92
2023-05-09T09:08:23.631Z,2.25
2023-05-09T09:10:52.521Z,1.70
2023-05-09T09:13:21.807Z,2.00
2023-05-09T09:15:52.289Z,2.17
2023-05-09T09:18:24.663Z,2.10
2023-05-09T09:20:58.640Z,2.20
2023-05-09T09:23:27.537Z,2.15
2023-05-09T09:26:05.236Z,1.90
2023-05-09T09:28:34.964Z,2.15
2023-05-09T09:31:29.074Z,2.13
2023-05-09T09:34:01.835Z,2.15
2023-05-09T09:36:32.929Z,2.03
2023-05-09T09:39:02.146Z,2.00
2023-05-09T09:41:39.316Z,1.90
2023-05-09T09:44:09.900Z,1.95
2023-05-09T09:46:51.124Z,2.10
2023-05-09T09:49:21.730Z,1.88
2023-05-09T09:51:52.723Z,1.95
2023-05-09T09:54:21.481Z,1.85
2023-05-09T09:56:53.598Z,2.72
2023-05-09T09:59:25.902Z,1.70
2023-05-09T10:04:23.243Z,1.65
2023-05-09T10:06:56.833Z,2.00
2023-05-09T10:09:25.826Z,1.95
2023-05-09T10:11:55.883Z,2.63
2023-05-09T10:14:26.160Z,2.05
2023-05-09T10:16:58.103Z,1.95
2023-05-09T10:19:27.900Z,2.17
2023-05-09T10:21:59.149Z,1.85
2023-05-09T10:24:29.731Z,2.22
2023-05-09T10:27:07.277Z,2.08
2023-05-09T10:29:37.026Z,2.35
2023-05-09T10:32:24.414Z,1.92
2023-05-09T10:34:55.442Z,1.73
2023-05-09T10:37:24.186Z,2.20
2023-05-09T10:39:54.012Z,2.05
2023-05-09T10:42:25.650Z,2.30
2023-05-09T10:44:54.319Z,2.75
2023-05-09T10:47:22.933Z,2.05
2023-05-09T10:49:50.781Z,2.00
2023-05-09T10:52:23.204Z,1.83
2023-05-09T10:55:02.663Z,1.55
2023-05-09T10:57:32.925Z,2.10
2023-05-09T11:00:02.053Z,2.03
2023-05-09T11:02:33.021Z,1.77
2023-05-09T11:05:22.106Z,2.15
2023-05-09T11:08:29.245Z,2.20
2023-05-09T11:11:03.352Z,2.00
2023-05-09T11:13:33.597Z,2.03
2023-05-09T11:16:02.067Z,1.92
2023-05-09T11:18:32.682Z,2.05
2023-05-09T11:21:08.516Z,4.57
2023-05-09T11:23:39.177Z,3.10
2023-05-09T11:26:08.785Z,2.20
2023-05-09T11:28:38.324Z,2.20
2023-05-09T11:31:24.805Z,2.30
2023-05-09T11:34:03.319Z,2.55
2023-05-09T11:36:35.911Z,2.60
2023-05-09T11:41:41.044Z,1.88
2023-05-09T11:44:21.577Z,2.47
2023-05-09T11:46:50.229Z,2.10
2023-05-09T11:49:19.989Z,1.73
2023-05-09T11:51:47.765Z,1.88
2023-05-09T11:54:16.001Z,2.70
2023-05-09T11:56:44.085Z,2.00
2023-05-09T11:59:14.962Z,2.15
2023-05-09T12:01:43.101Z,3.22
2023-05-09T12:04:12.358Z,2.20
2023-05-09T12:06:40.761Z,2.05
2023-05-09T12:09:10.693Z,2.05
2023-05-09T12:11:39.280Z,2.40
2023-05-09T12:14:07.938Z,2.85
2023-05-09T12:16:36.241Z,1.90
2023-05-09T12:19:05.255Z,2.08
2023-05-09T12:21:34.107Z,2.10
2023-05-09T12:24:02.824Z,1.85
2023-05-09T12:26:31.274Z,2.20
2023-05-09T12:29:00.155Z,1.85
2023-05-09T12:31:28.768Z,1.92
2023-05-09T12:33:57.720Z,2.00
2023-05-09T12:36:27.031Z,2.53
2023-05-09T12:38:56.805Z,1.90
2023-05-09T12:43:56.902Z,2.00
2023-05-09T12:46:26.284Z,1.80
2023-05-09T12:48:55.154Z,1.52
2023-05-09T12:51:24.003Z,2.25
2023-05-09T12:53:52.783Z,1.90
2023-05-09T12:56:23.683Z,1.80
2023-05-09T12:58:54.041Z,2.00
2023-05-09T13:01:27.902Z,1.98
2023-05-09T13:04:04.203Z,1.83
2023-05-09T13:06:36.619Z,1.83
2023-05-09T13:09:06.703Z,2.47
2023-05-09T13:11:36.037Z,1.60
2023-05-09T13:14:04.762Z,1.88
2023-05-09T13:16:32.758Z,2.22
2023-05-09T13:19:02.059Z,1.80
2023-05-09T13:21:30.136Z,1.88
2023-05-09T13:23:58.669Z,2.10
2023-05-09T13:26:28.306Z,2.35
2023-05-09T13:28:57.151Z,1.90
2023-05-09T13:31:25.751Z,1.88
2023-05-09T13:33:54.463Z,2.05
2023-05-09T13:36:23.410Z,1.88
2023-05-09T13:38:51.873Z,1.65
2023-05-09T13:41:23.160Z,2.00
2023-05-09T13:43:52.191Z,2.20
2023-05-09T13:46:20.378Z,1.80
2023-05-09T13:48:52.573Z,2.13
2023-05-09T13:51:22.150Z,2.20
2023-05-09T13:53:51.526Z,2.13
2023-05-09T13:56:20.445Z,1.88
2023-05-09T13:58:48.849Z,2.40
2023-05-09T14:01:16.736Z,2.45
2023-05-09T14:03:47.986Z,1.90
2023-05-09T14:06:17.465Z,2.20
2023-05-09T14:08:46.173Z,2.13
2023-05-09T14:11:14.201Z,2.08
2023-05-09T14:13:42.600Z,2.13
2023-05-09T14:16:10.765Z,2.08
2023-05-09T14:18:40.150Z,2.95
2023-05-09T14:21:08.198Z,7.72
2023-05-09T14:23:36.575Z,2.60
2023-05-09T14:26:04.345Z,5.63
2023-05-09T14:28:32.914Z,2.38
2023-05-09T14:31:01.922Z,2.03
2023-05-09T14:33:30.626Z,2.15
2023-05-09T14:35:58.935Z,1.90
2023-05-09T14:38:27.750Z,1.83
2023-05-09T14:40:56.427Z,2.22
2023-05-09T14:43:24.969Z,2.22
2023-05-09T14:45:52.794Z,2.17
2023-05-09T14:48:21.375Z,2.30
2023-05-09T14:50:50.154Z,2.30
2023-05-09T14:53:18.799Z,2.40
2023-05-09T14:55:47.126Z,2.08
2023-05-09T14:58:16.308Z,2.28
2023-05-09T15:00:47.961Z,2.67
2023-05-09T15:03:16.520Z,1.90
2023-05-09T15:05:45.224Z,2.30
2023-05-09T15:08:14.577Z,2.40
2023-05-09T15:10:42.901Z,2.20
2023-05-09T15:13:11.942Z,2.50
2023-05-09T15:15:40.981Z,2.35
2023-05-09T15:18:10.596Z,3.08
2023-05-09T15:20:38.906Z,3.35
2023-05-09T15:23:08.105Z,2.17
2023-05-09T15:25:36.292Z,2.28
2023-05-09T15:28:05.111Z,2.17
2023-05-09T15:30:34.862Z,2.90
2023-05-09T15:33:04.623Z,2.40
2023-05-09T15:35:32.932Z,2.72
2023-05-09T15:38:00.814Z,2.13
2023-05-09T15:40:29.344Z,2.78
2023-05-09T15:42:58.025Z,2.00
2023-05-09T15:45:39.265Z,2.42
2023-05-09T15:48:07.755Z,2.17
2023-05-09T15:50:35.927Z,2.00
2023-05-09T15:53:06.409Z,2.60
2023-05-09T15:55:35.051Z,2.08
2023-05-09T15:58:03.376Z,2.38
2023-05-09T16:00:31.428Z,2.30
2023-05-09T16:03:00.053Z,2.45
2023-05-09T16:05:27.975Z,2.63
2023-05-09T16:07:56.482Z,1.83
2023-05-09T16:10:24.252Z,2.22
2023-05-09T16:12:53.050Z,2.03
2023-05-09T16:15:21.505Z,2.47
2023-05-09T16:17:49.506Z,2.58
2023-05-09T16:20:17.485Z,2.10
2023-05-09T16:22:45.883Z,2.15
2023-05-09T16:25:14.489Z,2.05
2023-05-09T16:27:45.999Z,4.63
2023-05-09T16:30:14.996Z,2.60
2023-05-09T16:32:43.419Z,2.50
2023-05-09T16:35:11.302Z,2.58
2023-05-09T16:37:40.050Z,2.40
2023-05-09T16:40:08.668Z,2.80
2023-05-09T16:42:37.472Z,2.33
2023-05-09T16:45:06.855Z,3.10
2023-05-09T16:47:35.515Z,3.45
2023-05-09T16:50:05.363Z,2.95
2023-05-09T16:52:33.857Z,3.97
2023-05-09T16:55:01.841Z,2.97
2023-05-09T16:57:30.361Z,2.17
2023-05-09T16:59:58.789Z,2.90
2023-05-09T17:02:26.905Z,2.78
2023-05-09T17:04:55.320Z,3.70
2023-05-09T17:07:23.940Z,2.90
2023-05-09T17:09:51.817Z,2.90
2023-05-09T17:12:20.763Z,2.65
2023-05-09T17:14:48.843Z,2.90
2023-05-09T17:17:17.852Z,2.50
2023-05-09T17:19:45.947Z,2.60
2023-05-09T17:22:14.036Z,2.80
2023-05-09T17:24:42.035Z,2.63
2023-05-09T17:27:11.701Z,2.67
2023-05-09T17:29:39.649Z,2.40
2023-05-09T17:32:08.026Z,2.55
2023-05-09T17:34:36.510Z,2.67
2023-05-09T17:37:06.248Z,3.10
2023-05-09T17:39:34.801Z,2.30
2023-05-09T17:42:02.832Z,2.75
2023-05-09T17:44:31.318Z,2.55
2023-05-09T17:47:01.727Z,2.50
2023-05-09T17:49:30.266Z,2.80
2023-05-09T17:51:58.284Z,2.72
2023-05-09T17:54:26.752Z,2.92
2023-05-09T17:56:59.417Z,2.90
2023-05-09T17:59:28.988Z,3.05
2023-05-09T18:01:57.254Z,3.30
2023-05-09T18:04:26.207Z,2.90
2023-05-09T18:06:54.698Z,2.97
2023-05-09T18:09:24.432Z,2.72
2023-05-09T18:11:53.080Z,3.30
2023-05-09T18:14:22.314Z,2.97
2023-05-09T18:16:51.757Z,3.00
2023-05-09T18:19:20.375Z,3.22
2023-05-09T18:21:48.767Z,2.83
2023-05-09T18:24:17.186Z,2.65
2023-05-09T18:26:44.932Z,2.90
2023-05-09T18:29:14.389Z,3.38
2023-05-09T18:31:43.270Z,2.63
2023-05-09T18:34:12.411Z,3.20
2023-05-09T18:36:40.230Z,3.20
2023-05-09T18:39:09.317Z,3.22
2023-05-09T18:41:37.580Z,3.25
2023-05-09T18:44:06.188Z,3.30
2023-05-09T18:46:34.144Z,3.45
2023-05-09T18:49:05.860Z,3.33
2023-05-09T18:51:34.302Z,3.40
2023-05-09T18:54:03.048Z,3.65
2023-05-09T18:56:31.049Z,3.67
2023-05-09T18:58:59.363Z,3.25
2023-05-09T19:01:27.106Z,3.97
2023-05-09T19:03:56.380Z,3.60
2023-05-09T19:06:27.513Z,3.50
2023-05-09T19:08:55.899Z,3.05
2023-05-09T19:11:24.366Z,4.03
2023-05-09T19:13:53.676Z,4.47
2023-05-09T19:16:23.380Z,4.05
2023-05-09T19:18:54.546Z,3.70
2023-05-09T19:21:23.445Z,4.25
2023-05-09T19:23:52.801Z,4.57
2023-05-09T19:26:23.593Z,4.57
2023-05-09T19:29:00.093Z,4.80
2023-05-09T19:31:32.948Z,6.75
2023-05-09T19:34:04.570Z,6.97
2023-05-09T19:36:33.977Z,5.93
2023-05-09T19:39:02.753Z,6.18
2023-05-09T19:41:30.677Z,5.80
2023-05-09T19:43:59.836Z,5.68
2023-05-09T19:46:28.707Z,5.28
2023-05-09T19:48:58.589Z,5.22
2023-05-09T19:51:28.620Z,5.68
2023-05-09T19:53:57.822Z,5.63
2023-05-09T19:56:26.265Z,6.15
2023-05-09T19:58:55.683Z,6.03
2023-05-09T20:01:23.764Z,5.68
2023-05-09T20:03:53.680Z,5.25
2023-05-09T20:06:36.052Z,6.28
2023-05-09T20:09:05.281Z,6.07
2023-05-09T20:11:33.285Z,5.38
2023-05-09T20:14:02.013Z,5.80
2023-05-09T20:16:30.022Z,5.70
2023-05-09T20:18:59.620Z,6.45
2023-05-09T20:21:28.189Z,6.93
2023-05-09T20:23:57.065Z,6.07
2023-05-09T20:26:26.484Z,6.68
2023-05-09T20:29:01.741Z,6.50
2023-05-09T20:31:29.684Z,6.70
2023-05-09T20:33:58.636Z,6.13
2023-05-09T20:36:28.311Z,6.72
2023-05-09T20:38:57.664Z,7.22
2023-05-09T20:41:26.197Z,7.00
2023-05-09T20:43:54.808Z,6.70
2023-05-09T20:46:25.132Z,6.70
2023-05-09T20:48:54.831Z,6.35
2023-05-09T20:51:23.368Z,7.32
2023-05-09T20:53:51.749Z,6.70
2023-05-09T20:56:20.259Z,6.97
2023-05-09T20:58:49.018Z,6.97
2023-05-09T21:01:17.496Z,7.10
2023-05-09T21:03:45.942Z,13.55
2023-05-09T21:06:13.910Z,16.75
2023-05-09T21:08:43.037Z,17.73
2023-05-09T21:11:11.455Z,30.15
2023-05-09T21:13:40.044Z,21.23
2023-05-09T21:16:08.813Z,18.05
2023-05-09T21:18:36.813Z,19.20
2023-05-09T21:21:08.530Z,15.45
2023-05-09T21:23:36.910Z,14.10
2023-05-09T21:26:05.653Z,11.75
2023-05-09T21:28:34.846Z,8.52
2023-05-09T21:31:02.700Z,9.82
2023-05-09T21:33:31.351Z,8.52
2023-05-09T21:35:59.930Z,12.52
2023-05-09T21:38:28.145Z,12.80
2023-05-09T21:40:56.118Z,14.35
2023-05-09T21:43:24.184Z,10.35
2023-05-09T21:45:52.506Z,7.72
2023-05-09T21:48:20.900Z,8.80
2023-05-09T21:50:48.830Z,8.07
2023-05-09T21:53:17.570Z,9.07
2023-05-09T21:55:45.743Z,19.83
2023-05-09T21:58:14.001Z,19.08
2023-05-09T22:00:41.665Z,34.58
2023-05-09T22:03:09.862Z,11.10
2023-05-09T22:05:37.379Z,10.27
2023-05-09T22:08:05.840Z,22.77
2023-05-09T22:10:34.331Z,24.92
2023-05-09T22:13:02.235Z,9.15
2023-05-09T22:15:29.836Z,10.35
2023-05-09T22:17:58.254Z,7.90
2023-05-09T22:20:26.820Z,8.40
2023-05-09T22:22:54.660Z,8.60
2023-05-09T22:25:22.691Z,7.85
2023-05-09T22:27:51.213Z,18.98
2023-05-09T22:30:19.136Z,28.05
2023-05-09T22:32:47.272Z,16.27
2023-05-09T22:35:14.840Z,24.50
2023-05-09T22:37:43.449Z,19.75
2023-05-09T22:40:12.202Z,13.13
2023-05-09T22:42:40.108Z,10.63
2023-05-09T22:45:19.509Z,19.40
2023-05-09T22:47:48.096Z,19.42
2023-05-09T22:50:15.964Z,13.95
2023-05-09T22:52:44.126Z,18.73
2023-05-09T22:55:12.214Z,14.45
2023-05-09T22:57:41.696Z,12.52
2023-05-09T23:00:09.788Z,10.50
2023-05-09T23:02:37.672Z,14.23
2023-05-09T23:05:06.640Z,14.77
2023-05-09T23:07:35.242Z,10.35
2023-05-09T23:10:02.939Z,8.82
2023-05-09T23:12:30.950Z,13.43
2023-05-09T23:14:58.517Z,11.18
2023-05-09T23:17:26.465Z,10.50
2023-05-09T23:19:54.040Z,9.63
2023-05-09T23:22:21.985Z,8.05
2023-05-09T23:24:49.672Z,8.65
2023-05-09T23:27:18.253Z,10.93
2023-05-09T23:29:46.229Z,12.00
2023-05-09T23:32:14.379Z,11.05
2023-05-09T23:34:41.991Z,8.55
2023-05-09T23:37:10.370Z,8.63
2023-05-09T23:39:38.086Z,9.15
2023-05-09T23:42:06.012Z,8.68
2023-05-09T23:44:33.546Z,7.80
2023-05-09T23:47:02.300Z,8.07
2023-05-09T23:49:30.022Z,8.48
2023-05-09T23:51:57.821Z,8.38
2023-05-09T23:54:25.485Z,7.85
2023-05-09T23:56:53.544Z,7.22
2023-05-09T23:59:21.137Z,8.43
